Deunquat, Ohio
Current Conditions -  °F | °C
As of 8:53 AM on Saturday 25 Oct 2014 (Local Time) from KMNN Reporting Station
Haze Haze  
Wind Chill: 11°   Ceiling: 5000
Heat Index: 11°   Visibility: 4mi
Dew Point:   Wind: 8mph
Humidity: 83%   Direction: 190°S
Pressure: 29.94"   Gusts: NA
Location:  40.948°N, 83.1346°W
Report Text: KMNN 251253Z AUTO 19007KT 4SM HZ BKN050 OVC060 11/08 A2994 RMK AO2 SLP140 T01110083 TSNO $
Loading
Personal Weather Stations






























Interactive Weather Map
Tropical Storm Tracking
New forecast layout! Learn more

10-Day Weather Forecast

Advertisements
Track Severe Weather on mobile